createdAt,value
2018-09-06T00:01:50.296Z,26.30
2018-09-06T00:04:18.792Z,25.83
2018-09-06T00:06:47.077Z,28.90
2018-09-06T00:09:15.434Z,27.63
2018-09-06T00:11:43.713Z,23.43
2018-09-06T00:14:12.042Z,23.60
2018-09-06T00:16:40.366Z,23.73
2018-09-06T00:19:08.645Z,23.87
2018-09-06T00:21:36.961Z,23.10
2018-09-06T00:24:05.352Z,26.20
2018-09-06T00:26:33.649Z,24.23
2018-09-06T00:29:01.964Z,24.37
2018-09-06T00:31:30.281Z,22.90
2018-09-06T00:33:58.681Z,24.67
2018-09-06T00:36:27.033Z,23.37
2018-09-06T00:38:55.387Z,24.90
2018-09-06T00:41:23.750Z,25.30
2018-09-06T00:43:54.204Z,23.17
2018-09-06T00:46:22.501Z,25.93
2018-09-06T00:48:50.876Z,22.07
2018-09-06T00:51:19.153Z,24.33
2018-09-06T00:53:47.519Z,25.93
2018-09-06T00:56:15.797Z,23.70
2018-09-06T00:58:44.100Z,23.10
2018-09-06T01:01:12.365Z,25.17
2018-09-06T01:03:40.798Z,22.23
2018-09-06T01:06:09.030Z,22.87
2018-09-06T01:08:37.325Z,23.80
2018-09-06T01:11:05.661Z,21.37
2018-09-06T01:13:34.150Z,22.03
2018-09-06T01:16:02.436Z,20.63
2018-09-06T01:18:30.784Z,24.17
2018-09-06T01:20:59.089Z,24.43
2018-09-06T01:23:27.370Z,27.93
2018-09-06T01:25:55.671Z,25.77
2018-09-06T01:28:30.627Z,24.43
2018-09-06T01:30:58.964Z,24.50
2018-09-06T01:33:27.313Z,21.60
2018-09-06T01:36:01.048Z,21.47
2018-09-06T01:38:29.434Z,22.73
2018-09-06T01:40:57.746Z,26.63
2018-09-06T01:43:26.130Z,26.07
2018-09-06T01:45:54.506Z,23.60
2018-09-06T01:48:22.839Z,24.83
2018-09-06T01:50:51.120Z,18.97
2018-09-06T01:53:19.428Z,18.27
2018-09-06T01:55:47.693Z,20.03
2018-09-06T01:58:15.993Z,18.20
2018-09-06T02:00:44.255Z,21.07
2018-09-06T02:03:12.838Z,17.43
2018-09-06T02:05:41.183Z,18.07
2018-09-06T02:08:09.485Z,17.43
2018-09-06T02:10:37.799Z,20.40
2018-09-06T02:13:06.215Z,17.93
2018-09-06T02:15:34.512Z,16.20
2018-09-06T02:18:02.845Z,15.27
2018-09-06T02:20:31.117Z,17.27
2018-09-06T02:22:59.586Z,15.23
2018-09-06T02:25:28.028Z,17.60
2018-09-06T02:27:56.438Z,16.70
2018-09-06T02:30:24.799Z,19.50
2018-09-06T02:32:53.288Z,21.27
2018-09-06T02:35:21.611Z,22.60
2018-09-06T02:37:49.928Z,21.63
2018-09-06T02:40:23.471Z,22.60
2018-09-06T02:42:51.877Z,26.67
2018-09-06T02:45:20.179Z,22.27
2018-09-06T02:47:55.733Z,22.67
2018-09-06T02:50:29.385Z,23.80
2018-09-06T02:52:57.935Z,23.53
2018-09-06T02:55:27.555Z,20.53
2018-09-06T02:57:55.812Z,21.73
2018-09-06T03:00:27.566Z,18.95
2018-09-06T03:02:57.032Z,21.30
2018-09-06T03:05:26.266Z,21.23
2018-09-06T03:07:55.762Z,22.53
2018-09-06T03:10:24.291Z,20.37
2018-09-06T03:12:53.383Z,18.70
2018-09-06T03:15:21.682Z,20.57
2018-09-06T03:17:49.891Z,19.03
2018-09-06T03:20:18.183Z,20.73
2018-09-06T03:22:46.708Z,16.33
2018-09-06T03:25:15.067Z,14.23
2018-09-06T03:27:43.374Z,15.23
2018-09-06T03:30:11.617Z,16.77
2018-09-06T03:32:39.962Z,16.53
2018-09-06T03:35:09.159Z,15.60
2018-09-06T03:37:37.487Z,13.57
2018-09-06T03:40:06.085Z,14.03
2018-09-06T03:42:34.402Z,15.80
2018-09-06T03:45:02.695Z,14.63
2018-09-06T03:47:31.081Z,13.87
2018-09-06T03:49:59.375Z,13.30
2018-09-06T03:52:27.661Z,15.27
2018-09-06T03:54:55.908Z,15.03
2018-09-06T03:57:24.174Z,12.93
2018-09-06T03:59:52.453Z,14.13
2018-09-06T04:02:20.731Z,12.07
2018-09-06T04:04:49.096Z,11.63
2018-09-06T04:07:17.348Z,13.97
2018-09-06T04:09:45.569Z,13.17
2018-09-06T04:12:13.866Z,13.63
2018-09-06T04:14:43.349Z,14.00
2018-09-06T04:17:11.654Z,13.00
2018-09-06T04:19:39.968Z,12.73
2018-09-06T04:22:08.313Z,12.13
2018-09-06T04:24:36.782Z,17.53
2018-09-06T04:27:05.022Z,14.13
2018-09-06T04:29:33.320Z,13.23
2018-09-06T04:32:01.595Z,13.80
2018-09-06T04:34:29.909Z,18.07
2018-09-06T04:36:58.200Z,13.67
2018-09-06T04:39:26.510Z,14.67
2018-09-06T04:41:55.133Z,12.73
2018-09-06T04:44:23.418Z,12.40
2018-09-06T04:46:52.360Z,12.20
2018-09-06T04:49:20.759Z,10.93
2018-09-06T04:51:49.772Z,11.10
2018-09-06T04:54:18.383Z,10.10
2018-09-06T04:56:46.911Z,12.40
2018-09-06T04:59:15.206Z,11.67
2018-09-06T05:01:43.535Z,11.80
2018-09-06T05:04:11.889Z,11.23
2018-09-06T05:06:40.450Z,13.03
2018-09-06T05:09:09.761Z,11.87
2018-09-06T05:11:40.288Z,12.30
2018-09-06T05:17:09.388Z,15.23
2018-09-06T05:19:37.709Z,14.53
2018-09-06T05:22:06.318Z,18.40
2018-09-06T05:24:34.760Z,16.20
2018-09-06T05:27:03.201Z,14.10
2018-09-06T05:29:31.543Z,14.60
2018-09-06T05:31:59.846Z,19.50
2018-09-06T05:34:28.235Z,16.80
2018-09-06T05:36:56.513Z,15.10
2018-09-06T05:39:24.861Z,12.90
2018-09-06T05:41:53.127Z,14.37
2018-09-06T05:44:21.540Z,12.83
2018-09-06T05:46:49.881Z,13.57
2018-09-06T05:49:18.122Z,13.23
2018-09-06T05:51:46.480Z,12.10
2018-09-06T05:54:14.864Z,11.97
2018-09-06T05:56:43.140Z,12.77
2018-09-06T05:59:11.506Z,18.60
2018-09-06T06:01:39.886Z,14.27
2018-09-06T06:04:08.374Z,13.87
2018-09-06T06:06:36.651Z,13.50
2018-09-06T06:09:07.174Z,13.03
2018-09-06T06:11:35.494Z,12.40
2018-09-06T06:14:03.920Z,13.07
2018-09-06T06:16:32.239Z,13.67
2018-09-06T06:19:00.535Z,13.40
2018-09-06T06:21:28.796Z,13.80
2018-09-06T06:23:58.256Z,12.27
2018-09-06T06:26:26.570Z,13.60
2018-09-06T06:28:55.748Z,10.50
2018-09-06T06:31:24.078Z,11.80
2018-09-06T06:33:52.989Z,11.27
2018-09-06T06:36:21.325Z,12.07
2018-09-06T06:38:49.611Z,13.60
2018-09-06T06:41:18.107Z,12.23
2018-09-06T06:43:46.563Z,12.27
2018-09-06T06:46:14.857Z,11.63
2018-09-06T06:48:43.137Z,11.63
2018-09-06T06:51:11.461Z,12.97
2018-09-06T06:53:39.789Z,13.47
2018-09-06T06:56:08.056Z,12.50
2018-09-06T06:58:36.339Z,11.50
2018-09-06T07:01:04.685Z,11.03
2018-09-06T07:03:34.989Z,14.87
2018-09-06T07:06:03.328Z,14.00
2018-09-06T07:08:31.634Z,15.00
2018-09-06T07:11:00.040Z,13.47
2018-09-06T07:13:28.496Z,12.37
2018-09-06T07:15:56.864Z,14.73
2018-09-06T07:18:25.291Z,13.57
2018-09-06T07:20:53.453Z,12.73
2018-09-06T07:23:21.795Z,13.17
2018-09-06T07:25:50.137Z,15.13
2018-09-06T07:28:18.465Z,14.13
2018-09-06T07:30:46.741Z,15.17
2018-09-06T07:33:15.100Z,14.40
2018-09-06T07:35:43.338Z,14.90
2018-09-06T07:38:11.644Z,13.60
2018-09-06T07:40:40.002Z,16.23
2018-09-06T07:43:08.455Z,15.10
2018-09-06T07:45:36.779Z,16.50
2018-09-06T07:48:05.160Z,14.83
2018-09-06T07:50:33.538Z,13.37
2018-09-06T07:53:01.963Z,13.77
2018-09-06T07:55:30.360Z,14.17
2018-09-06T07:57:58.706Z,13.40
2018-09-06T08:00:27.002Z,16.07
2018-09-06T08:02:55.457Z,13.63
2018-09-06T08:05:23.768Z,13.17
2018-09-06T08:07:52.104Z,13.07
2018-09-06T08:10:20.568Z,11.30
2018-09-06T08:12:48.982Z,12.93
2018-09-06T08:15:17.470Z,11.67
2018-09-06T08:17:45.795Z,12.23
2018-09-06T08:20:14.129Z,12.00
2018-09-06T08:22:42.628Z,13.77
2018-09-06T08:25:10.947Z,11.07
2018-09-06T08:27:39.257Z,14.07
2018-09-06T08:30:08.480Z,11.00
2018-09-06T08:32:36.844Z,10.90
2018-09-06T08:35:05.217Z,11.17
2018-09-06T08:37:33.564Z,11.00
2018-09-06T08:40:02.174Z,11.10
2018-09-06T08:42:30.428Z,11.37
2018-09-06T08:44:58.754Z,10.93
2018-09-06T08:47:27.097Z,10.90
2018-09-06T08:49:55.332Z,10.57
2018-09-06T08:52:23.707Z,13.10
2018-09-06T08:54:52.157Z,10.73
2018-09-06T08:57:20.549Z,11.60
2018-09-06T08:59:48.816Z,10.27
2018-09-06T09:02:17.198Z,14.10
2018-09-06T09:04:45.733Z,11.97
2018-09-06T09:07:13.975Z,11.87
2018-09-06T09:09:42.250Z,11.27
2018-09-06T09:12:10.596Z,10.40
2018-09-06T09:14:39.236Z,11.00
2018-09-06T09:17:07.575Z,10.07
2018-09-06T09:19:35.896Z,9.70
2018-09-06T09:22:04.273Z,10.13
2018-09-06T09:24:32.638Z,8.80
2018-09-06T09:27:01.289Z,9.73
2018-09-06T09:29:29.704Z,9.10
2018-09-06T09:31:58.051Z,9.10
2018-09-06T09:34:27.132Z,8.77
2018-09-06T09:36:55.661Z,10.07
2018-09-06T09:39:23.982Z,14.07
2018-09-06T09:41:52.253Z,10.07
2018-09-06T09:44:20.644Z,10.67
2018-09-06T09:49:16.605Z,12.83
2018-09-06T09:51:45.000Z,9.83
2018-09-06T09:54:13.457Z,9.37
2018-09-06T09:56:41.825Z,9.40
2018-09-06T09:59:10.193Z,8.63
2018-09-06T10:01:47.629Z,8.40
2018-09-06T10:04:21.786Z,8.97
2018-09-06T10:06:55.330Z,9.07
2018-09-06T10:09:25.111Z,10.13
2018-09-06T10:11:53.501Z,10.67
2018-09-06T10:14:22.290Z,10.77
2018-09-06T10:16:50.718Z,11.97
2018-09-06T10:19:19.083Z,10.80
2018-09-06T10:21:47.337Z,9.27
2018-09-06T10:24:15.875Z,10.87
2018-09-06T10:26:44.753Z,9.77
2018-09-06T10:29:13.154Z,10.40
2018-09-06T10:31:41.468Z,11.43
2018-09-06T10:34:10.031Z,10.23
2018-09-06T10:36:38.363Z,10.97
2018-09-06T10:39:08.913Z,11.40
2018-09-06T10:41:37.294Z,10.23
2018-09-06T10:44:05.706Z,9.63
2018-09-06T10:46:34.094Z,11.50
2018-09-06T10:49:02.543Z,10.30
2018-09-06T10:51:30.850Z,9.57
2018-09-06T10:53:59.292Z,9.40
2018-09-06T10:56:27.614Z,10.03
2018-09-06T10:58:55.913Z,9.37
2018-09-06T11:01:26.702Z,11.53
2018-09-06T11:03:56.645Z,16.20
2018-09-06T11:06:25.285Z,18.63
2018-09-06T11:08:53.778Z,19.27
2018-09-06T11:11:22.363Z,16.40
2018-09-06T11:13:50.718Z,18.57
2018-09-06T11:16:19.540Z,16.00
2018-09-06T11:18:47.865Z,16.07
2018-09-06T11:21:16.809Z,15.87
2018-09-06T11:23:44.987Z,15.67
2018-09-06T11:26:13.365Z,15.63
2018-09-06T11:28:41.710Z,15.83
2018-09-06T11:31:10.057Z,16.40
2018-09-06T11:33:38.607Z,18.77
2018-09-06T11:36:06.913Z,16.03
2018-09-06T11:38:35.254Z,17.17
2018-09-06T11:41:03.589Z,18.17
2018-09-06T11:43:32.216Z,14.37
2018-09-06T11:46:00.579Z,16.47
2018-09-06T11:48:29.127Z,11.70
2018-09-06T11:50:57.441Z,13.07
2018-09-06T11:53:25.850Z,13.20
2018-09-06T11:55:54.234Z,11.80
2018-09-06T11:58:22.613Z,13.03
2018-09-06T12:00:50.924Z,10.53
2018-09-06T12:03:19.381Z,12.10
2018-09-06T12:05:47.749Z,15.47
2018-09-06T12:08:16.416Z,16.10
2018-09-06T12:10:44.782Z,12.80
2018-09-06T12:13:14.390Z,12.90
2018-09-06T12:15:42.805Z,10.97
2018-09-06T12:18:11.146Z,13.57
2018-09-06T12:20:39.512Z,11.03
2018-09-06T12:23:07.903Z,11.60
2018-09-06T12:25:36.219Z,11.40
2018-09-06T12:28:04.563Z,13.70
2018-09-06T12:30:32.887Z,12.10
2018-09-06T12:33:01.380Z,12.13
2018-09-06T12:35:29.690Z,11.40
2018-09-06T12:37:58.080Z,10.67
2018-09-06T12:40:26.461Z,11.43
2018-09-06T12:42:55.856Z,12.23
2018-09-06T12:45:24.211Z,13.15
2018-09-06T12:47:52.457Z,12.73
2018-09-06T12:50:20.808Z,11.77
2018-09-06T12:52:49.252Z,9.40
2018-09-06T12:55:17.551Z,8.20
2018-09-06T12:57:45.813Z,7.00
2018-09-06T13:00:14.114Z,9.20
2018-09-06T13:02:42.609Z,7.77
2018-09-06T13:05:10.957Z,7.43
2018-09-06T13:07:39.258Z,8.70
2018-09-06T13:10:07.729Z,6.07
2018-09-06T13:12:36.033Z,9.20
2018-09-06T13:15:04.649Z,7.00
2018-09-06T13:17:32.937Z,7.53
2018-09-06T13:20:01.261Z,7.10
2018-09-06T13:22:29.517Z,6.70
2018-09-06T13:24:57.848Z,8.03
2018-09-06T13:27:26.127Z,7.80
2018-09-06T13:29:54.413Z,8.10
2018-09-06T13:32:22.712Z,7.97
2018-09-06T13:34:51.287Z,8.47
2018-09-06T13:37:19.607Z,10.70
2018-09-06T13:39:47.868Z,8.23
2018-09-06T13:42:16.139Z,8.77
2018-09-06T13:44:44.531Z,11.47
2018-09-06T13:47:12.866Z,8.20
2018-09-06T13:49:41.234Z,6.23
2018-09-06T13:52:09.582Z,6.30
2018-09-06T13:57:38.929Z,5.20
2018-09-06T14:00:07.309Z,5.23
2018-09-06T14:02:35.556Z,5.20
2018-09-06T14:05:03.992Z,4.40
2018-09-06T14:07:32.260Z,4.40
2018-09-06T14:10:00.632Z,4.70
2018-09-06T14:12:28.941Z,5.80
2018-09-06T14:14:57.660Z,6.83
2018-09-06T14:17:26.452Z,7.13
2018-09-06T14:19:54.791Z,9.60
2018-09-06T14:22:23.375Z,5.13
2018-09-06T14:24:51.749Z,5.03
2018-09-06T14:27:20.077Z,5.30
2018-09-06T14:29:48.374Z,4.30
2018-09-06T14:32:16.649Z,4.20
2018-09-06T14:34:45.019Z,4.17
2018-09-06T14:37:13.415Z,3.63
2018-09-06T14:39:41.919Z,3.80
2018-09-06T14:42:10.207Z,5.33
2018-09-06T14:44:40.636Z,4.87
2018-09-06T14:47:08.970Z,4.50
2018-09-06T14:49:37.253Z,4.80
2018-09-06T14:52:05.591Z,5.33
2018-09-06T14:55:36.772Z,5.30
2018-09-06T14:58:05.299Z,4.43
2018-09-06T15:00:33.783Z,10.23
2018-09-06T15:03:02.227Z,5.87
2018-09-06T15:05:30.532Z,6.87
2018-09-06T15:07:58.901Z,6.33
2018-09-06T15:10:27.402Z,5.83
2018-09-06T15:12:55.736Z,5.40
2018-09-06T15:15:24.013Z,4.40
2018-09-06T15:17:52.293Z,4.67
2018-09-06T15:20:20.854Z,5.58
2018-09-06T15:22:49.219Z,4.17
2018-09-06T15:25:17.493Z,3.50
2018-09-06T15:27:45.980Z,3.73
2018-09-06T15:30:14.273Z,3.50
2018-09-06T15:32:43.594Z,3.57
2018-09-06T15:35:11.886Z,2.83
2018-09-06T15:37:40.182Z,2.50
2018-09-06T15:40:08.563Z,2.97
2018-09-06T15:42:37.000Z,2.93
2018-09-06T15:45:05.294Z,2.70
2018-09-06T15:47:33.883Z,2.93
2018-09-06T15:50:02.953Z,4.37
2018-09-06T15:52:31.172Z,2.97
2018-09-06T15:54:59.678Z,2.37
2018-09-06T15:57:28.095Z,3.37
2018-09-06T15:59:56.371Z,2.70
2018-09-06T16:02:24.692Z,2.97
2018-09-06T16:04:53.021Z,2.13
2018-09-06T16:07:21.337Z,4.40
2018-09-06T16:09:49.664Z,4.70
2018-09-06T16:12:18.172Z,2.47
2018-09-06T16:14:47.663Z,5.47
2018-09-06T16:17:15.937Z,3.00
2018-09-06T16:19:44.438Z,3.73
2018-09-06T16:22:12.705Z,3.07
2018-09-06T16:24:42.262Z,3.03
2018-09-06T16:27:10.514Z,3.40
2018-09-06T16:29:39.685Z,2.77
2018-09-06T16:32:08.033Z,3.83
2018-09-06T16:34:36.293Z,6.60
2018-09-06T16:37:04.718Z,3.37
2018-09-06T16:39:33.643Z,4.03
2018-09-06T16:42:08.780Z,6.43
2018-09-06T16:44:37.273Z,3.30
2018-09-06T16:47:05.633Z,3.60
2018-09-06T16:49:33.990Z,4.57
2018-09-06T16:52:02.214Z,7.53
2018-09-06T16:54:30.633Z,3.77
2018-09-06T16:56:58.926Z,4.30
2018-09-06T16:59:27.177Z,6.63
2018-09-06T17:01:55.474Z,3.57
2018-09-06T17:04:23.871Z,3.47
2018-09-06T17:06:52.207Z,3.53
2018-09-06T17:09:20.482Z,2.30
2018-09-06T17:11:49.084Z,3.40
2018-09-06T17:14:17.457Z,5.00
2018-09-06T17:16:45.837Z,3.20
2018-09-06T17:19:14.197Z,3.50
2018-09-06T17:21:42.488Z,4.87
2018-09-06T17:24:10.905Z,3.13
2018-09-06T17:26:39.291Z,3.37
2018-09-06T17:29:07.560Z,4.30
2018-09-06T17:31:35.823Z,3.13
2018-09-06T17:34:04.362Z,3.60
2018-09-06T17:36:32.689Z,3.70
2018-09-06T17:39:01.094Z,4.77
2018-09-06T17:41:29.375Z,2.97
2018-09-06T17:43:57.783Z,4.27
2018-09-06T17:46:26.183Z,2.77
2018-09-06T17:48:54.568Z,3.23
2018-09-06T17:51:22.959Z,4.00
2018-09-06T17:53:52.517Z,3.70
2018-09-06T17:56:20.820Z,5.37
2018-09-06T17:58:49.159Z,3.63
2018-09-06T18:01:27.063Z,5.23
2018-09-06T18:03:55.496Z,6.43
2018-09-06T18:06:23.867Z,5.67
2018-09-06T18:08:54.375Z,4.63
2018-09-06T18:11:23.705Z,3.43
2018-09-06T18:13:52.169Z,4.63
2018-09-06T18:16:20.681Z,3.30
2018-09-06T18:18:49.014Z,4.83
2018-09-06T18:21:17.435Z,2.92
2018-09-06T18:23:45.858Z,10.67
2018-09-06T18:26:15.353Z,5.20
2018-09-06T18:28:43.734Z,6.90
2018-09-06T18:31:12.051Z,4.20
2018-09-06T18:33:40.540Z,5.47
2018-09-06T18:36:08.862Z,3.97
2018-09-06T18:38:37.235Z,5.53
2018-09-06T18:41:05.647Z,3.27
2018-09-06T18:43:34.184Z,5.87
2018-09-06T18:46:02.478Z,5.77
2018-09-06T18:48:30.807Z,3.57
2018-09-06T18:50:59.352Z,6.27
2018-09-06T18:53:27.622Z,3.50
2018-09-06T18:55:55.904Z,3.23
2018-09-06T18:58:24.974Z,6.97
2018-09-06T19:00:53.654Z,6.63
2018-09-06T19:03:21.935Z,3.70
2018-09-06T19:05:50.358Z,4.07
2018-09-06T19:08:18.657Z,3.73
2018-09-06T19:10:47.085Z,2.80
2018-09-06T19:13:15.525Z,4.40
2018-09-06T19:15:43.949Z,3.73
2018-09-06T19:18:12.368Z,5.43
2018-09-06T19:20:40.897Z,7.67
2018-09-06T19:23:09.291Z,2.77
2018-09-06T19:25:37.827Z,5.67
2018-09-06T19:28:06.594Z,7.07
2018-09-06T19:30:34.921Z,4.97
2018-09-06T19:33:04.361Z,5.17
2018-09-06T19:35:32.708Z,6.70
2018-09-06T19:38:01.030Z,4.53
2018-09-06T19:40:29.393Z,5.87
2018-09-06T19:42:57.946Z,7.13
2018-09-06T19:45:26.398Z,4.87
2018-09-06T19:47:55.100Z,4.13
2018-09-06T19:50:23.502Z,5.70
2018-09-06T19:52:52.024Z,3.97
2018-09-06T19:55:20.800Z,4.27
2018-09-06T19:57:49.378Z,3.30
2018-09-06T20:00:17.993Z,4.67
2018-09-06T20:02:46.819Z,6.73
2018-09-06T20:05:15.100Z,6.80
2018-09-06T20:10:41.508Z,5.83
2018-09-06T20:13:09.988Z,5.87
2018-09-06T20:15:38.674Z,6.80
2018-09-06T20:18:07.062Z,4.27
2018-09-06T20:20:35.415Z,3.30
2018-09-06T20:23:04.396Z,4.63
2018-09-06T20:25:34.722Z,2.83
2018-09-06T20:28:07.101Z,5.73
2018-09-06T20:30:35.385Z,5.57
2018-09-06T20:33:03.965Z,7.20
2018-09-06T20:35:32.353Z,2.72
2018-09-06T20:38:00.724Z,4.73
2018-09-06T20:40:29.023Z,4.83
2018-09-06T20:42:58.731Z,6.17
2018-09-06T20:45:27.156Z,3.67
2018-09-06T20:47:55.640Z,5.73
2018-09-06T20:50:24.043Z,3.17
2018-09-06T20:52:52.649Z,5.20
2018-09-06T20:55:21.200Z,6.47
2018-09-06T20:57:49.638Z,5.83
2018-09-06T21:00:17.971Z,5.27
2018-09-06T21:02:46.320Z,7.00
2018-09-06T21:05:14.861Z,7.57
2018-09-06T21:07:43.160Z,5.17
2018-09-06T21:10:13.355Z,3.23
2018-09-06T21:12:42.806Z,6.47
2018-09-06T21:15:11.150Z,3.33
2018-09-06T21:17:39.673Z,4.60
2018-09-06T21:20:09.151Z,6.10
2018-09-06T21:22:38.677Z,3.37
2018-09-06T21:25:07.389Z,3.03
2018-09-06T21:27:35.782Z,5.23
2018-09-06T21:30:04.239Z,4.50
2018-09-06T21:32:32.566Z,3.20
2018-09-06T21:35:00.855Z,6.10
2018-09-06T21:37:29.234Z,4.70
2018-09-06T21:39:57.663Z,3.67
2018-09-06T21:42:25.883Z,5.00
2018-09-06T21:44:54.197Z,2.23
2018-09-06T21:47:22.526Z,2.40
2018-09-06T21:49:50.766Z,3.00
2018-09-06T21:52:19.065Z,4.57
2018-09-06T21:54:49.541Z,3.57
2018-09-06T21:57:17.848Z,2.33
2018-09-06T21:59:46.096Z,4.57
2018-09-06T22:02:19.802Z,2.63
2018-09-06T22:04:48.154Z,4.40
2018-09-06T22:07:16.416Z,3.93
2018-09-06T22:09:44.729Z,5.23
2018-09-06T22:12:17.707Z,3.55
2018-09-06T22:14:48.220Z,6.70
2018-09-06T22:17:16.760Z,3.37
2018-09-06T22:19:45.348Z,2.43
2018-09-06T22:22:13.657Z,6.20
2018-09-06T22:24:42.972Z,3.73
2018-09-06T22:27:11.448Z,3.77
2018-09-06T22:29:39.743Z,3.67
2018-09-06T22:32:08.051Z,3.43
2018-09-06T22:34:37.539Z,3.43
2018-09-06T22:37:05.947Z,5.03
2018-09-06T22:39:34.215Z,5.50
2018-09-06T22:42:02.484Z,4.03
2018-09-06T22:44:30.790Z,4.83
2018-09-06T22:46:59.125Z,3.40
2018-09-06T22:49:27.456Z,3.73
2018-09-06T22:54:58.328Z,4.13
2018-09-06T22:57:26.624Z,4.67
2018-09-06T22:59:55.011Z,5.17
2018-09-06T23:02:23.293Z,3.37
2018-09-06T23:04:51.608Z,4.33
2018-09-06T23:07:19.955Z,4.10
2018-09-06T23:09:48.291Z,3.63
2018-09-06T23:12:16.652Z,4.43
2018-09-06T23:14:45.178Z,2.97
2018-09-06T23:17:13.441Z,4.30
2018-09-06T23:19:41.724Z,5.30
2018-09-06T23:22:10.111Z,3.83
2018-09-06T23:24:38.458Z,5.77
2018-09-06T23:27:06.724Z,2.93
2018-09-06T23:29:35.128Z,3.07
2018-09-06T23:32:03.522Z,4.47
2018-09-06T23:34:36.363Z,3.33
2018-09-06T23:37:05.355Z,4.60
2018-09-06T23:39:34.141Z,6.23
2018-09-06T23:42:02.935Z,3.13
2018-09-06T23:44:32.517Z,5.97
2018-09-06T23:47:00.838Z,4.23
2018-09-06T23:49:35.806Z,6.33
2018-09-06T23:52:04.076Z,7.57
2018-09-06T23:54:32.470Z,5.70
2018-09-06T23:57:00.830Z,7.93
2018-09-06T23:59:29.154Z,4.67
